sensor_id;sensor_type;location;lat;lon;timestamp;pressure;altitude;pressure_sealevel;temperature;humidity
31346;BME280;21711;49.708;18.568;2023-11-19T00:00:10;97775.38;;;-0.33;100.00
31346;BME280;21711;49.708;18.568;2023-11-19T00:02:42;97779.56;;;-0.32;100.00
31346;BME280;21711;49.708;18.568;2023-11-19T00:05:11;97781.13;;;-0.38;100.00
31346;BME280;21711;49.708;18.568;2023-11-19T00:07:40;97777.16;;;-0.34;100.00
31346;BME280;21711;49.708;18.568;2023-11-19T00:10:16;97775.13;;;-0.38;100.00
31346;BME280;21711;49.708;18.568;2023-11-19T00:12:48;97769.25;;;-0.47;100.00
31346;BME280;21711;49.708;18.568;2023-11-19T00:15:17;97761.50;;;-0.41;100.00
31346;BME280;21711;49.708;18.568;2023-11-19T00:17:47;97762.56;;;-0.35;100.00
31346;BME280;21711;49.708;18.568;2023-11-19T00:20:18;97766.75;;;-0.34;100.00
31346;BME280;21711;49.708;18.568;2023-11-19T00:22:46;97780.31;;;-0.38;100.00
31346;BME280;21711;49.708;18.568;2023-11-19T00:25:17;97769.69;;;-0.44;100.00
31346;BME280;21711;49.708;18.568;2023-11-19T00:27:45;97767.75;;;-0.35;100.00
31346;BME280;21711;49.708;18.568;2023-11-19T00:30:13;97765.53;;;-0.38;100.00
31346;BME280;21711;49.708;18.568;2023-11-19T00:32:42;97761.56;;;-0.34;100.00
31346;BME280;21711;49.708;18.568;2023-11-19T00:35:09;97757.19;;;-0.33;100.00
31346;BME280;21711;49.708;18.568;2023-11-19T00:37:37;97763.41;;;-0.28;100.00
31346;BME280;21711;49.708;18.568;2023-11-19T00:40:06;97766.56;;;-0.32;100.00
31346;BME280;21711;49.708;18.568;2023-11-19T00:42:34;97765.75;;;-0.33;100.00
31346;BME280;21711;49.708;18.568;2023-11-19T00:45:01;97770.53;;;-0.36;100.00
31346;BME280;21711;49.708;18.568;2023-11-19T00:47:28;97772.28;;;-0.44;100.00
31346;BME280;21711;49.708;18.568;2023-11-19T00:49:58;97761.47;;;-0.47;100.00
31346;BME280;21711;49.708;18.568;2023-11-19T00:52:25;97750.31;;;-0.41;100.00
31346;BME280;21711;49.708;18.568;2023-11-19T00:54:53;97745.09;;;-0.41;100.00
31346;BME280;21711;49.708;18.568;2023-11-19T00:57:21;97748.38;;;-0.32;100.00
31346;BME280;21711;49.708;18.568;2023-11-19T00:59:48;97746.78;;;-0.33;100.00
31346;BME280;21711;49.708;18.568;2023-11-19T01:02:15;97751.16;;;-0.34;100.00
31346;BME280;21711;49.708;18.568;2023-11-19T01:04:43;97747.38;;;-0.31;100.00
31346;BME280;21711;49.708;18.568;2023-11-19T01:07:11;97744.41;;;-0.28;100.00
31346;BME280;21711;49.708;18.568;2023-11-19T01:09:42;97754.84;;;-0.50;100.00
31346;BME280;21711;49.708;18.568;2023-11-19T01:12:10;97748.41;;;-0.54;100.00
31346;BME280;21711;49.708;18.568;2023-11-19T01:14:37;97741.50;;;-0.47;100.00
31346;BME280;21711;49.708;18.568;2023-11-19T01:17:05;97735.56;;;-0.34;100.00
31346;BME280;21711;49.708;18.568;2023-11-19T01:19:34;97737.59;;;-0.29;100.00
31346;BME280;21711;49.708;18.568;2023-11-19T01:22:01;97739.22;;;-0.28;100.00
31346;BME280;21711;49.708;18.568;2023-11-19T01:24:29;97726.69;;;-0.46;100.00
31346;BME280;21711;49.708;18.568;2023-11-19T01:26:58;97726.28;;;-0.50;100.00
31346;BME280;21711;49.708;18.568;2023-11-19T01:29:27;97706.66;;;-0.52;100.00
31346;BME280;21711;49.708;18.568;2023-11-19T01:31:54;97703.88;;;-0.51;100.00
31346;BME280;21711;49.708;18.568;2023-11-19T01:34:22;97697.91;;;-0.45;100.00
31346;BME280;21711;49.708;18.568;2023-11-19T01:36:49;97700.75;;;-0.40;100.00
31346;BME280;21711;49.708;18.568;2023-11-19T01:39:17;97698.38;;;-0.34;100.00
31346;BME280;21711;49.708;18.568;2023-11-19T01:41:44;97683.59;;;-0.34;100.00
31346;BME280;21711;49.708;18.568;2023-11-19T01:44:12;97677.38;;;-0.33;100.00
31346;BME280;21711;49.708;18.568;2023-11-19T01:46:44;97666.22;;;-0.33;100.00
31346;BME280;21711;49.708;18.568;2023-11-19T01:49:15;97667.53;;;-0.44;100.00
31346;BME280;21711;49.708;18.568;2023-11-19T01:51:45;97653.47;;;-0.57;100.00
31346;BME280;21711;49.708;18.568;2023-11-19T01:54:14;97647.00;;;-0.68;100.00
31346;BME280;21711;49.708;18.568;2023-11-19T01:56:42;97643.00;;;-0.70;100.00
31346;BME280;21711;49.708;18.568;2023-11-19T01:59:11;97633.47;;;-0.63;100.00
31346;BME280;21711;49.708;18.568;2023-11-19T02:01:41;97617.88;;;-0.63;100.00
31346;BME280;21711;49.708;18.568;2023-11-19T02:04:10;97614.88;;;-0.60;100.00
31346;BME280;21711;49.708;18.568;2023-11-19T02:06:40;97593.91;;;-0.58;100.00
31346;BME280;21711;49.708;18.568;2023-11-19T02:09:09;97589.31;;;-0.56;100.00
31346;BME280;21711;49.708;18.568;2023-11-19T02:11:40;97587.72;;;-0.50;100.00
31346;BME280;21711;49.708;18.568;2023-11-19T02:14:08;97583.94;;;-0.48;100.00
31346;BME280;21711;49.708;18.568;2023-11-19T02:16:35;97587.69;;;-0.57;100.00
31346;BME280;21711;49.708;18.568;2023-11-19T02:19:02;97582.31;;;-0.56;100.00
31346;BME280;21711;49.708;18.568;2023-11-19T02:21:30;97578.50;;;-0.60;100.00
31346;BME280;21711;49.708;18.568;2023-11-19T02:23:58;97582.50;;;-0.57;100.00
31346;BME280;21711;49.708;18.568;2023-11-19T02:26:51;97580.94;;;-0.51;100.00
31346;BME280;21711;49.708;18.568;2023-11-19T02:29:23;97578.19;;;-0.43;100.00
31346;BME280;21711;49.708;18.568;2023-11-19T02:31:50;97581.22;;;-0.33;100.00
31346;BME280;21711;49.708;18.568;2023-11-19T02:34:18;97576.66;;;-0.31;100.00
31346;BME280;21711;49.708;18.568;2023-11-19T02:36:45;97570.03;;;-0.33;100.00
31346;BME280;21711;49.708;18.568;2023-11-19T02:39:14;97562.63;;;-0.36;100.00
31346;BME280;21711;49.708;18.568;2023-11-19T02:41:42;97553.63;;;-0.34;100.00
31346;BME280;21711;49.708;18.568;2023-11-19T02:44:09;97553.63;;;-0.34;100.00
31346;BME280;21711;49.708;18.568;2023-11-19T02:46:36;97536.16;;;-0.54;100.00
31346;BME280;21711;49.708;18.568;2023-11-19T02:49:04;97534.53;;;-0.61;100.00
31346;BME280;21711;49.708;18.568;2023-11-19T02:51:31;97530.69;;;-0.72;100.00
31346;BME280;21711;49.708;18.568;2023-11-19T02:53:58;97528.31;;;-0.67;100.00
31346;BME280;21711;49.708;18.568;2023-11-19T02:56:25;97520.75;;;-0.62;100.00
31346;BME280;21711;49.708;18.568;2023-11-19T02:58:54;97510.31;;;-0.69;100.00
31346;BME280;21711;49.708;18.568;2023-11-19T03:01:23;97508.34;;;-0.67;100.00
31346;BME280;21711;49.708;18.568;2023-11-19T03:04:02;97506.53;;;-0.66;100.00
31346;BME280;21711;49.708;18.568;2023-11-19T03:06:30;97505.53;;;-0.65;100.00
31346;BME280;21711;49.708;18.568;2023-11-19T03:08:58;97504.94;;;-0.67;100.00
31346;BME280;21711;49.708;18.568;2023-11-19T03:11:25;97501.72;;;-0.69;100.00
31346;BME280;21711;49.708;18.568;2023-11-19T03:13:52;97479.53;;;-0.72;100.00
31346;BME280;21711;49.708;18.568;2023-11-19T03:16:20;97484.28;;;-0.82;100.00
31346;BME280;21711;49.708;18.568;2023-11-19T03:18:47;97473.13;;;-0.83;100.00
31346;BME280;21711;49.708;18.568;2023-11-19T03:21:15;97464.94;;;-0.73;100.00
31346;BME280;21711;49.708;18.568;2023-11-19T03:23:42;97446.16;;;-0.75;100.00
31346;BME280;21711;49.708;18.568;2023-11-19T03:26:11;97447.97;;;-0.75;100.00
31346;BME280;21711;49.708;18.568;2023-11-19T03:28:38;97458.00;;;-0.65;100.00
31346;BME280;21711;49.708;18.568;2023-11-19T03:31:06;97446.56;;;-0.71;100.00
31346;BME280;21711;49.708;18.568;2023-11-19T03:33:36;97445.19;;;-0.67;100.00
31346;BME280;21711;49.708;18.568;2023-11-19T03:36:05;97438.78;;;-0.71;100.00
31346;BME280;21711;49.708;18.568;2023-11-19T03:38:33;97428.22;;;-0.63;100.00
31346;BME280;21711;49.708;18.568;2023-11-19T03:41:00;97434.00;;;-0.68;100.00
31346;BME280;21711;49.708;18.568;2023-11-19T03:43:27;97443.41;;;-0.60;100.00
31346;BME280;21711;49.708;18.568;2023-11-19T03:45:55;97432.63;;;-0.57;100.00
31346;BME280;21711;49.708;18.568;2023-11-19T03:48:22;97430.81;;;-0.70;100.00
31346;BME280;21711;49.708;18.568;2023-11-19T03:50:49;97422.59;;;-0.73;100.00
31346;BME280;21711;49.708;18.568;2023-11-19T03:53:17;97407.41;;;-0.70;100.00
31346;BME280;21711;49.708;18.568;2023-11-19T03:55:45;97410.03;;;-0.70;100.00
31346;BME280;21711;49.708;18.568;2023-11-19T03:58:13;97406.41;;;-0.69;100.00
31346;BME280;21711;49.708;18.568;2023-11-19T04:00:41;97399.84;;;-0.64;100.00
31346;BME280;21711;49.708;18.568;2023-11-19T04:03:08;97391.84;;;-0.63;100.00
31346;BME280;21711;49.708;18.568;2023-11-19T04:05:36;97392.44;;;-0.68;100.00
31346;BME280;21711;49.708;18.568;2023-11-19T04:08:04;97396.84;;;-0.61;100.00
31346;BME280;21711;49.708;18.568;2023-11-19T04:10:32;97406.06;;;-0.59;100.00
31346;BME280;21711;49.708;18.568;2023-11-19T04:12:59;97400.44;;;-0.56;100.00
31346;BME280;21711;49.708;18.568;2023-11-19T04:15:27;97413.47;;;-0.42;100.00
31346;BME280;21711;49.708;18.568;2023-11-19T04:17:54;97420.06;;;-0.40;100.00
31346;BME280;21711;49.708;18.568;2023-11-19T04:20:21;97436.47;;;-0.39;100.00
31346;BME280;21711;49.708;18.568;2023-11-19T04:22:50;97448.47;;;-0.38;100.00
31346;BME280;21711;49.708;18.568;2023-11-19T04:25:18;97444.66;;;-0.35;100.00
31346;BME280;21711;49.708;18.568;2023-11-19T04:27:46;97444.06;;;-0.44;100.00
31346;BME280;21711;49.708;18.568;2023-11-19T04:30:15;97446.66;;;-0.44;100.00
31346;BME280;21711;49.708;18.568;2023-11-19T04:32:42;97424.03;;;-0.50;100.00
31346;BME280;21711;49.708;18.568;2023-11-19T04:35:10;97415.88;;;-0.41;100.00
31346;BME280;21711;49.708;18.568;2023-11-19T04:37:37;97403.91;;;-0.35;100.00
31346;BME280;21711;49.708;18.568;2023-11-19T04:40:06;97397.50;;;-0.39;100.00
31346;BME280;21711;49.708;18.568;2023-11-19T04:42:34;97388.47;;;-0.43;100.00
31346;BME280;21711;49.708;18.568;2023-11-19T04:45:01;97375.31;;;-0.35;100.00
31346;BME280;21711;49.708;18.568;2023-11-19T04:47:29;97366.69;;;-0.35;100.00
31346;BME280;21711;49.708;18.568;2023-11-19T04:49:56;97362.13;;;-0.33;100.00
31346;BME280;21711;49.708;18.568;2023-11-19T04:52:23;97362.50;;;-0.30;100.00
31346;BME280;21711;49.708;18.568;2023-11-19T04:54:51;97362.72;;;-0.24;100.00
31346;BME280;21711;49.708;18.568;2023-11-19T04:57:18;97369.69;;;-0.38;100.00
31346;BME280;21711;49.708;18.568;2023-11-19T04:59:45;97361.50;;;-0.29;100.00
31346;BME280;21711;49.708;18.568;2023-11-19T05:02:13;97367.69;;;-0.43;100.00
31346;BME280;21711;49.708;18.568;2023-11-19T05:04:43;97363.31;;;-0.43;100.00
31346;BME280;21711;49.708;18.568;2023-11-19T05:07:14;97352.69;;;-0.34;100.00
31346;BME280;21711;49.708;18.568;2023-11-19T05:09:42;97357.72;;;-0.19;100.00
31346;BME280;21711;49.708;18.568;2023-11-19T05:12:10;97353.91;;;-0.23;100.00
31346;BME280;21711;49.708;18.568;2023-11-19T05:14:39;97354.31;;;-0.33;100.00
31346;BME280;21711;49.708;18.568;2023-11-19T05:17:07;97342.09;;;-0.40;100.00
31346;BME280;21711;49.708;18.568;2023-11-19T05:19:35;97336.69;;;-0.51;100.00
31346;BME280;21711;49.708;18.568;2023-11-19T05:22:03;97344.88;;;-0.48;100.00
31346;BME280;21711;49.708;18.568;2023-11-19T05:24:32;97345.72;;;-0.34;100.00
31346;BME280;21711;49.708;18.568;2023-11-19T05:26:59;97348.31;;;-0.20;100.00
31346;BME280;21711;49.708;18.568;2023-11-19T05:29:26;97352.31;;;-0.18;100.00
31346;BME280;21711;49.708;18.568;2023-11-19T05:31:54;97343.13;;;-0.14;100.00
31346;BME280;21711;49.708;18.568;2023-11-19T05:34:22;97334.13;;;-0.18;100.00
31346;BME280;21711;49.708;18.568;2023-11-19T05:36:50;97335.09;;;-0.05;100.00
31346;BME280;21711;49.708;18.568;2023-11-19T05:39:17;97344.91;;;-0.01;100.00
31346;BME280;21711;49.708;18.568;2023-11-19T05:41:48;97343.88;;;-0.06;100.00
31346;BME280;21711;49.708;18.568;2023-11-19T05:44:17;97348.69;;;-0.03;100.00
31346;BME280;21711;49.708;18.568;2023-11-19T05:46:45;97352.88;;;0.11;100.00
31346;BME280;21711;49.708;18.568;2023-11-19T05:49:13;97360.88;;;0.17;100.00
31346;BME280;21711;49.708;18.568;2023-11-19T05:51:41;97367.47;;;0.12;100.00
31346;BME280;21711;49.708;18.568;2023-11-19T05:54:09;97354.88;;;0.16;100.00
31346;BME280;21711;49.708;18.568;2023-11-19T05:56:37;97353.66;;;0.19;100.00
31346;BME280;21711;49.708;18.568;2023-11-19T05:59:05;97350.88;;;0.13;100.00
31346;BME280;21711;49.708;18.568;2023-11-19T06:01:34;97335.06;;;0.15;100.00
31346;BME280;21711;49.708;18.568;2023-11-19T06:04:02;97328.25;;;0.21;100.00
31346;BME280;21711;49.708;18.568;2023-11-19T06:06:30;97323.81;;;0.28;100.00
31346;BME280;21711;49.708;18.568;2023-11-19T06:08:58;97318.44;;;0.23;100.00
31346;BME280;21711;49.708;18.568;2023-11-19T06:11:39;97323.00;;;0.41;100.00
31346;BME280;21711;49.708;18.568;2023-11-19T06:14:06;97308.59;;;0.38;100.00
31346;BME280;21711;49.708;18.568;2023-11-19T06:16:34;97298.03;;;0.27;100.00
31346;BME280;21711;49.708;18.568;2023-11-19T06:19:04;97283.19;;;0.34;100.00
31346;BME280;21711;49.708;18.568;2023-11-19T06:21:31;97274.81;;;0.32;100.00
31346;BME280;21711;49.708;18.568;2023-11-19T06:23:59;97271.44;;;0.18;100.00
31346;BME280;21711;49.708;18.568;2023-11-19T06:26:27;97282.84;;;0.17;100.00
31346;BME280;21711;49.708;18.568;2023-11-19T06:28:54;97278.00;;;0.27;100.00
31346;BME280;21711;49.708;18.568;2023-11-19T06:31:22;97267.78;;;0.25;100.00
31346;BME280;21711;49.708;18.568;2023-11-19T06:33:49;97250.78;;;0.30;100.00
31346;BME280;21711;49.708;18.568;2023-11-19T06:36:16;97252.16;;;0.32;100.00
31346;BME280;21711;49.708;18.568;2023-11-19T06:38:44;97243.16;;;0.35;100.00
31346;BME280;21711;49.708;18.568;2023-11-19T06:41:11;97235.53;;;0.40;100.00
31346;BME280;21711;49.708;18.568;2023-11-19T06:43:39;97245.97;;;0.33;100.00
31346;BME280;21711;49.708;18.568;2023-11-19T06:46:18;97247.28;;;0.49;100.00
31346;BME280;21711;49.708;18.568;2023-11-19T06:48:46;97231.44;;;0.58;100.00
31346;BME280;21711;49.708;18.568;2023-11-19T06:51:13;97235.81;;;0.64;100.00
31346;BME280;21711;49.708;18.568;2023-11-19T06:53:43;97231.19;;;0.66;100.00
31346;BME280;21711;49.708;18.568;2023-11-19T06:56:24;97239.41;;;0.63;100.00
31346;BME280;21711;49.708;18.568;2023-11-19T06:58:52;97236.44;;;0.59;100.00
31346;BME280;21711;49.708;18.568;2023-11-19T07:01:19;97239.19;;;0.71;100.00
31346;BME280;21711;49.708;18.568;2023-11-19T07:03:47;97246.19;;;0.71;100.00
31346;BME280;21711;49.708;18.568;2023-11-19T07:06:15;97250.97;;;0.74;100.00
31346;BME280;21711;49.708;18.568;2023-11-19T07:08:43;97258.22;;;0.72;100.00
31346;BME280;21711;49.708;18.568;2023-11-19T07:11:13;97255.78;;;0.77;100.00
31346;BME280;21711;49.708;18.568;2023-11-19T07:13:44;97251.31;;;0.84;100.00
31346;BME280;21711;49.708;18.568;2023-11-19T07:16:14;97253.63;;;0.99;100.00
31346;BME280;21711;49.708;18.568;2023-11-19T07:18:42;97244.97;;;1.05;100.00
31346;BME280;21711;49.708;18.568;2023-11-19T07:21:11;97241.22;;;0.95;100.00
31346;BME280;21711;49.708;18.568;2023-11-19T07:23:39;97240.44;;;0.94;100.00
31346;BME280;21711;49.708;18.568;2023-11-19T07:26:06;97242.63;;;0.97;100.00
31346;BME280;21711;49.708;18.568;2023-11-19T07:28:37;97237.44;;;1.23;100.00
31346;BME280;21711;49.708;18.568;2023-11-19T07:31:04;97236.00;;;1.27;100.00
31346;BME280;21711;49.708;18.568;2023-11-19T07:33:32;97230.47;;;1.42;100.00
31346;BME280;21711;49.708;18.568;2023-11-19T07:35:59;97234.63;;;1.50;100.00
31346;BME280;21711;49.708;18.568;2023-11-19T07:38:27;97229.97;;;1.52;100.00
31346;BME280;21711;49.708;18.568;2023-11-19T07:40:54;97211.50;;;1.53;100.00
31346;BME280;21711;49.708;18.568;2023-11-19T07:43:23;97182.69;;;1.48;100.00
31346;BME280;21711;49.708;18.568;2023-11-19T07:45:51;97179.06;;;1.49;100.00
31346;BME280;21711;49.708;18.568;2023-11-19T07:48:18;97178.50;;;1.47;100.00
31346;BME280;21711;49.708;18.568;2023-11-19T07:50:50;97186.31;;;1.47;100.00
31346;BME280;21711;49.708;18.568;2023-11-19T07:53:18;97195.09;;;1.53;100.00
31346;BME280;21711;49.708;18.568;2023-11-19T07:55:46;97194.59;;;1.63;100.00
31346;BME280;21711;49.708;18.568;2023-11-19T07:58:13;97194.88;;;1.92;100.00
31346;BME280;21711;49.708;18.568;2023-11-19T08:00:41;97188.81;;;1.79;100.00
31346;BME280;21711;49.708;18.568;2023-11-19T08:03:08;97176.78;;;1.78;100.00
31346;BME280;21711;49.708;18.568;2023-11-19T08:05:36;97177.34;;;1.99;100.00
31346;BME280;21711;49.708;18.568;2023-11-19T08:08:04;97184.69;;;2.21;100.00
31346;BME280;21711;49.708;18.568;2023-11-19T08:10:31;97187.91;;;2.54;100.00
31346;BME280;21711;49.708;18.568;2023-11-19T08:13:00;97193.78;;;2.92;100.00
31346;BME280;21711;49.708;18.568;2023-11-19T08:15:28;97182.13;;;3.18;100.00
31346;BME280;21711;49.708;18.568;2023-11-19T08:17:59;97185.78;;;3.41;100.00
31346;BME280;21711;49.708;18.568;2023-11-19T08:20:26;97179.66;;;3.35;100.00
31346;BME280;21711;49.708;18.568;2023-11-19T08:22:54;97174.75;;;3.39;100.00
31346;BME280;21711;49.708;18.568;2023-11-19T08:25:22;97184.19;;;3.40;100.00
31346;BME280;21711;49.708;18.568;2023-11-19T08:27:50;97171.00;;;3.23;100.00
31346;BME280;21711;49.708;18.568;2023-11-19T08:30:18;97171.66;;;3.18;100.00
31346;BME280;21711;49.708;18.568;2023-11-19T08:32:46;97168.25;;;2.94;100.00
31346;BME280;21711;49.708;18.568;2023-11-19T08:35:13;97174.03;;;2.96;100.00
31346;BME280;21711;49.708;18.568;2023-11-19T08:37:41;97163.47;;;2.91;100.00
31346;BME280;21711;49.708;18.568;2023-11-19T08:40:09;97160.41;;;2.82;100.00
31346;BME280;21711;49.708;18.568;2023-11-19T08:42:37;97158.44;;;2.77;100.00
31346;BME280;21711;49.708;18.568;2023-11-19T08:45:08;97161.44;;;2.81;100.00
31346;BME280;21711;49.708;18.568;2023-11-19T08:47:39;97176.28;;;2.80;100.00
31346;BME280;21711;49.708;18.568;2023-11-19T08:50:08;97165.50;;;2.76;100.00
31346;BME280;21711;49.708;18.568;2023-11-19T08:52:36;97162.78;;;2.71;100.00
31346;BME280;21711;49.708;18.568;2023-11-19T08:55:04;97156.63;;;2.78;100.00
31346;BME280;21711;49.708;18.568;2023-11-19T08:57:32;97157.00;;;2.93;100.00
31346;BME280;21711;49.708;18.568;2023-11-19T09:00:00;97155.31;;;2.99;100.00
31346;BME280;21711;49.708;18.568;2023-11-19T09:02:27;97152.72;;;3.11;100.00
31346;BME280;21711;49.708;18.568;2023-11-19T09:04:55;97134.97;;;3.13;100.00
31346;BME280;21711;49.708;18.568;2023-11-19T09:07:23;97142.16;;;3.18;100.00
31346;BME280;21711;49.708;18.568;2023-11-19T09:09:50;97123.25;;;3.27;100.00
31346;BME280;21711;49.708;18.568;2023-11-19T09:12:17;97111.44;;;3.37;100.00
31346;BME280;21711;49.708;18.568;2023-11-19T09:14:45;97096.25;;;3.22;100.00
31346;BME280;21711;49.708;18.568;2023-11-19T09:17:13;97093.38;;;3.35;100.00
31346;BME280;21711;49.708;18.568;2023-11-19T09:19:41;97099.06;;;3.44;100.00
31346;BME280;21711;49.708;18.568;2023-11-19T09:22:09;97091.19;;;3.44;100.00
31346;BME280;21711;49.708;18.568;2023-11-19T09:24:36;97091.34;;;3.78;100.00
31346;BME280;21711;49.708;18.568;2023-11-19T09:27:04;97088.81;;;3.84;100.00
31346;BME280;21711;49.708;18.568;2023-11-19T09:29:32;97076.00;;;3.70;100.00
31346;BME280;21711;49.708;18.568;2023-11-19T09:32:00;97072.47;;;3.76;100.00
31346;BME280;21711;49.708;18.568;2023-11-19T09:34:31;97072.91;;;3.85;100.00
31346;BME280;21711;49.708;18.568;2023-11-19T09:36:59;97063.78;;;3.88;100.00
31346;BME280;21711;49.708;18.568;2023-11-19T09:39:26;97068.75;;;4.01;100.00
31346;BME280;21711;49.708;18.568;2023-11-19T09:41:53;97075.94;;;4.23;100.00
31346;BME280;21711;49.708;18.568;2023-11-19T09:44:21;97062.13;;;4.28;100.00
31346;BME280;21711;49.708;18.568;2023-11-19T09:46:49;97058.31;;;4.18;100.00
31346;BME280;21711;49.708;18.568;2023-11-19T09:49:21;97048.16;;;4.39;100.00
31346;BME280;21711;49.708;18.568;2023-11-19T09:51:56;97046.72;;;4.48;100.00
31346;BME280;21711;49.708;18.568;2023-11-19T09:54:23;97018.94;;;4.82;100.00
31346;BME280;21711;49.708;18.568;2023-11-19T09:56:51;97022.91;;;4.84;100.00
31346;BME280;21711;49.708;18.568;2023-11-19T09:59:19;97009.31;;;4.87;100.00
31346;BME280;21711;49.708;18.568;2023-11-19T10:01:47;97001.53;;;4.93;100.00
31346;BME280;21711;49.708;18.568;2023-11-19T10:04:16;96998.63;;;5.11;100.00
31346;BME280;21711;49.708;18.568;2023-11-19T10:06:44;96993.03;;;5.03;100.00
31346;BME280;21711;49.708;18.568;2023-11-19T10:09:12;96974.84;;;4.96;100.00
31346;BME280;21711;49.708;18.568;2023-11-19T10:11:42;96965.94;;;4.97;100.00
31346;BME280;21711;49.708;18.568;2023-11-19T10:14:09;96964.19;;;5.03;100.00
31346;BME280;21711;49.708;18.568;2023-11-19T10:16:38;96960.94;;;4.95;100.00
31346;BME280;21711;49.708;18.568;2023-11-19T10:19:06;96949.22;;;4.81;100.00
31346;BME280;21711;49.708;18.568;2023-11-19T10:21:34;96944.94;;;4.52;100.00
31346;BME280;21711;49.708;18.568;2023-11-19T10:24:02;96948.50;;;4.46;100.00
31346;BME280;21711;49.708;18.568;2023-11-19T10:26:29;96947.31;;;4.37;100.00
31346;BME280;21711;49.708;18.568;2023-11-19T10:28:57;96942.16;;;4.42;100.00
31346;BME280;21711;49.708;18.568;2023-11-19T10:31:25;96937.09;;;4.35;100.00
31346;BME280;21711;49.708;18.568;2023-11-19T10:33:53;96934.41;;;3.95;100.00
31346;BME280;21711;49.708;18.568;2023-11-19T10:36:21;96922.50;;;3.88;100.00
31346;BME280;21711;49.708;18.568;2023-11-19T10:38:56;96927.13;;;3.80;100.00
31346;BME280;21711;49.708;18.568;2023-11-19T10:41:31;96925.59;;;3.85;100.00
31346;BME280;21711;49.708;18.568;2023-11-19T10:43:59;96920.06;;;3.81;100.00
31346;BME280;21711;49.708;18.568;2023-11-19T10:46:40;96922.03;;;3.74;100.00
31346;BME280;21711;49.708;18.568;2023-11-19T10:49:08;96916.88;;;3.62;100.00
31346;BME280;21711;49.708;18.568;2023-11-19T10:51:36;96929.25;;;3.37;100.00
31346;BME280;21711;49.708;18.568;2023-11-19T10:54:10;96926.22;;;3.28;100.00
31346;BME280;21711;49.708;18.568;2023-11-19T10:56:38;96920.75;;;3.30;100.00
31346;BME280;21711;49.708;18.568;2023-11-19T10:59:08;96921.31;;;3.32;100.00
31346;BME280;21711;49.708;18.568;2023-11-19T11:01:45;96918.44;;;3.17;100.00
31346;BME280;21711;49.708;18.568;2023-11-19T11:04:15;96916.69;;;3.22;100.00
31346;BME280;21711;49.708;18.568;2023-11-19T11:06:47;96916.41;;;3.36;100.00
31346;BME280;21711;49.708;18.568;2023-11-19T11:09:15;96914.28;;;3.33;100.00
31346;BME280;21711;49.708;18.568;2023-11-19T11:11:47;96917.00;;;3.38;100.00
31346;BME280;21711;49.708;18.568;2023-11-19T11:14:16;96914.41;;;3.26;100.00
31346;BME280;21711;49.708;18.568;2023-11-19T11:16:46;96895.56;;;3.24;100.00
31346;BME280;21711;49.708;18.568;2023-11-19T11:19:16;96894.66;;;3.18;100.00
31346;BME280;21711;49.708;18.568;2023-11-19T11:21:50;96887.97;;;3.10;100.00
31346;BME280;21711;49.708;18.568;2023-11-19T11:36:19;96844.94;;;3.30;100.00
31346;BME280;21711;49.708;18.568;2023-11-19T11:38:49;96840.06;;;3.34;100.00
31346;BME280;21711;49.708;18.568;2023-11-19T11:41:24;96845.84;;;3.70;100.00
31346;BME280;21711;49.708;18.568;2023-11-19T11:43:56;96852.06;;;4.20;100.00
31346;BME280;21711;49.708;18.568;2023-11-19T11:49:06;96833.94;;;4.14;100.00
31346;BME280;21711;49.708;18.568;2023-11-19T11:54:26;96833.22;;;4.41;100.00
31346;BME280;21711;49.708;18.568;2023-11-19T11:57:12;96830.84;;;4.39;100.00
31346;BME280;21711;49.708;18.568;2023-11-19T12:02:18;96827.94;;;4.36;100.00
31346;BME280;21711;49.708;18.568;2023-11-19T12:04:51;96827.38;;;4.33;100.00
31346;BME280;21711;49.708;18.568;2023-11-19T12:07:24;96823.09;;;4.27;100.00
31346;BME280;21711;49.708;18.568;2023-11-19T12:10:05;96821.34;;;4.33;100.00
31346;BME280;21711;49.708;18.568;2023-11-19T12:12:35;96825.47;;;4.29;100.00
31346;BME280;21711;49.708;18.568;2023-11-19T12:15:09;96822.44;;;4.37;100.00
31346;BME280;21711;49.708;18.568;2023-11-19T12:20:12;96813.72;;;4.31;100.00
31346;BME280;21711;49.708;18.568;2023-11-19T12:22:42;96809.13;;;4.39;100.00
31346;BME280;21711;49.708;18.568;2023-11-19T12:25:11;96810.16;;;4.38;100.00
31346;BME280;21711;49.708;18.568;2023-11-19T12:27:45;96810.00;;;4.27;100.00
31346;BME280;21711;49.708;18.568;2023-11-19T12:30:21;96805.63;;;4.11;100.00
31346;BME280;21711;49.708;18.568;2023-11-19T12:32:48;96807.66;;;4.26;100.00
31346;BME280;21711;49.708;18.568;2023-11-19T12:35:16;96796.09;;;4.21;100.00
31346;BME280;21711;49.708;18.568;2023-11-19T12:37:49;96795.91;;;4.28;100.00
31346;BME280;21711;49.708;18.568;2023-11-19T12:40:24;96795.91;;;4.28;100.00
31346;BME280;21711;49.708;18.568;2023-11-19T12:42:53;96788.78;;;4.24;100.00
31346;BME280;21711;49.708;18.568;2023-11-19T12:45:22;96784.22;;;4.14;100.00
31346;BME280;21711;49.708;18.568;2023-11-19T12:48:08;96782.38;;;4.14;100.00
31346;BME280;21711;49.708;18.568;2023-11-19T12:53:25;96776.06;;;4.32;100.00
31346;BME280;21711;49.708;18.568;2023-11-19T12:55:54;96783.31;;;4.25;100.00
31346;BME280;21711;49.708;18.568;2023-11-19T13:01:07;96808.72;;;4.30;100.00
31346;BME280;21711;49.708;18.568;2023-11-19T13:03:39;96806.97;;;4.36;100.00
31346;BME280;21711;49.708;18.568;2023-11-19T13:06:09;96815.81;;;4.29;100.00
31346;BME280;21711;49.708;18.568;2023-11-19T13:08:45;96817.38;;;4.08;100.00
31346;BME280;21711;49.708;18.568;2023-11-19T13:11:13;96815.41;;;4.20;100.00
31346;BME280;21711;49.708;18.568;2023-11-19T13:13:58;96821.94;;;4.18;100.00
31346;BME280;21711;49.708;18.568;2023-11-19T13:16:27;96811.63;;;4.28;100.00
31346;BME280;21711;49.708;18.568;2023-11-19T13:18:56;96803.59;;;4.18;100.00
31346;BME280;21711;49.708;18.568;2023-11-19T13:21:24;96797.94;;;4.04;100.00